ETNH

Hohn Airport

Germany
METAR ETNH 140020Z 04002KT 9000 -SHSN BKN013TCU BKN065 01/00 Q1026 GRN
Observed Flight Rules
Dec-14 @ 00:20 UTC (25 minutes ago) Marginal Visual Flight Rules
Wind Visibility Clouds Conditions
40° at 2 knots 8,996 meters
  • Broken at 1,300' AGL
  • Broken at 6,500' AGL
  • Light Snow
Temperatures Readings
Current 1°C / 34°F
Dewpoint 0°C / 32°F
Humidity 93%
Altimeter 30.3" Hg
Pressure 1026 hPa
Elevation 17
METAR ETNH 140020Z 04002KT 9000 -SHSN BKN013TCU BKN065 01/00 Q1026 GRN
Observed Flight Rules
Dec-14 @ 00:20 UTC
(25 minutes ago)
MVFR
Wind Visibility
40° at 2 knots 8,996 meters
Clouds
  • Broken at 1,300' AGL
  • Broken at 6,500' AGL
Conditions
  • Light Snow
Temperature Dewpoint
1°C / 34°F 0°C / 32°F
Humidity Altimeter Pressure
93% 30.3" Hg 1026 hPa